sensor_id;sensor_type;location;lat;lon;timestamp;temperature;humidity
306;DHT22;137;48.578;9.180;2023-12-07T00:00:32;1.50;98.20
306;DHT22;137;48.578;9.180;2023-12-07T00:02:59;1.50;98.20
306;DHT22;137;48.578;9.180;2023-12-07T00:05:26;1.50;98.20
306;DHT22;137;48.578;9.180;2023-12-07T00:07:53;1.50;98.20
306;DHT22;137;48.578;9.180;2023-12-07T00:10:20;1.50;98.20
306;DHT22;137;48.578;9.180;2023-12-07T00:12:48;1.50;98.20
306;DHT22;137;48.578;9.180;2023-12-07T00:15:14;1.50;98.20
306;DHT22;137;48.578;9.180;2023-12-07T00:17:41;1.60;98.20
306;DHT22;137;48.578;9.180;2023-12-07T00:20:08;1.60;98.20
306;DHT22;137;48.578;9.180;2023-12-07T00:22:36;1.60;98.20
306;DHT22;137;48.578;9.180;2023-12-07T00:25:03;1.60;98.20
306;DHT22;137;48.578;9.180;2023-12-07T00:27:31;1.50;98.20
306;DHT22;137;48.578;9.180;2023-12-07T00:29:59;1.50;98.20
306;DHT22;137;48.578;9.180;2023-12-07T00:32:26;1.50;98.20
306;DHT22;137;48.578;9.180;2023-12-07T00:34:53;1.50;98.20
306;DHT22;137;48.578;9.180;2023-12-07T00:37:19;1.50;98.20
306;DHT22;137;48.578;9.180;2023-12-07T00:39:46;1.50;98.20
306;DHT22;137;48.578;9.180;2023-12-07T00:42:13;1.50;98.20
306;DHT22;137;48.578;9.180;2023-12-07T00:44:40;1.50;98.20
306;DHT22;137;48.578;9.180;2023-12-07T00:47:08;1.50;98.20
306;DHT22;137;48.578;9.180;2023-12-07T00:49:37;1.60;98.20
306;DHT22;137;48.578;9.180;2023-12-07T00:52:04;1.60;98.20
306;DHT22;137;48.578;9.180;2023-12-07T00:54:31;1.50;98.20
306;DHT22;137;48.578;9.180;2023-12-07T00:56:58;1.50;98.20
306;DHT22;137;48.578;9.180;2023-12-07T00:59:25;1.50;98.20
306;DHT22;137;48.578;9.180;2023-12-07T01:01:51;1.50;98.20
306;DHT22;137;48.578;9.180;2023-12-07T01:04:19;1.60;98.20
306;DHT22;137;48.578;9.180;2023-12-07T01:06:46;1.50;98.20
306;DHT22;137;48.578;9.180;2023-12-07T01:09:13;1.50;98.20
306;DHT22;137;48.578;9.180;2023-12-07T01:11:40;1.50;98.20
306;DHT22;137;48.578;9.180;2023-12-07T01:14:06;1.50;98.20
306;DHT22;137;48.578;9.180;2023-12-07T01:16:33;1.50;98.20
306;DHT22;137;48.578;9.180;2023-12-07T01:19:00;1.50;98.20
306;DHT22;137;48.578;9.180;2023-12-07T01:21:28;1.50;98.20
306;DHT22;137;48.578;9.180;2023-12-07T01:23:54;1.50;98.20
306;DHT22;137;48.578;9.180;2023-12-07T01:26:21;1.40;98.20
306;DHT22;137;48.578;9.180;2023-12-07T01:28:48;1.40;98.20
306;DHT22;137;48.578;9.180;2023-12-07T01:31:15;1.40;98.20
306;DHT22;137;48.578;9.180;2023-12-07T01:33:43;1.30;98.20
306;DHT22;137;48.578;9.180;2023-12-07T01:36:09;1.30;98.20
306;DHT22;137;48.578;9.180;2023-12-07T01:38:37;1.20;98.20
306;DHT22;137;48.578;9.180;2023-12-07T01:41:04;1.10;98.20
306;DHT22;137;48.578;9.180;2023-12-07T01:43:31;1.00;98.20
306;DHT22;137;48.578;9.180;2023-12-07T01:45:59;0.90;98.20
306;DHT22;137;48.578;9.180;2023-12-07T01:48:27;0.90;98.20
306;DHT22;137;48.578;9.180;2023-12-07T01:50:54;0.80;98.20
306;DHT22;137;48.578;9.180;2023-12-07T01:53:22;0.80;98.20
306;DHT22;137;48.578;9.180;2023-12-07T01:55:51;0.80;98.20
306;DHT22;137;48.578;9.180;2023-12-07T01:58:18;0.70;98.20
306;DHT22;137;48.578;9.180;2023-12-07T02:00:46;0.80;98.20
306;DHT22;137;48.578;9.180;2023-12-07T02:03:14;0.70;98.20
306;DHT22;137;48.578;9.180;2023-12-07T02:05:43;0.80;98.20
306;DHT22;137;48.578;9.180;2023-12-07T02:08:10;0.90;98.20
306;DHT22;137;48.578;9.180;2023-12-07T02:10:37;0.90;98.20
306;DHT22;137;48.578;9.180;2023-12-07T02:13:05;0.90;98.20
306;DHT22;137;48.578;9.180;2023-12-07T02:15:33;1.00;98.20
306;DHT22;137;48.578;9.180;2023-12-07T02:18:03;1.00;98.20
306;DHT22;137;48.578;9.180;2023-12-07T02:20:39;1.00;98.20
306;DHT22;137;48.578;9.180;2023-12-07T02:23:11;1.00;98.20
306;DHT22;137;48.578;9.180;2023-12-07T02:25:44;0.90;98.20
306;DHT22;137;48.578;9.180;2023-12-07T02:28:14;0.90;98.20
306;DHT22;137;48.578;9.180;2023-12-07T02:30:42;0.80;98.20
306;DHT22;137;48.578;9.180;2023-12-07T02:33:09;0.80;98.20
306;DHT22;137;48.578;9.180;2023-12-07T02:35:38;0.80;98.20
306;DHT22;137;48.578;9.180;2023-12-07T02:38:06;0.80;98.20
306;DHT22;137;48.578;9.180;2023-12-07T02:40:34;0.70;98.20
306;DHT22;137;48.578;9.180;2023-12-07T02:43:01;0.60;98.20
306;DHT22;137;48.578;9.180;2023-12-07T02:45:31;0.50;98.20
306;DHT22;137;48.578;9.180;2023-12-07T02:47:59;0.40;98.20
306;DHT22;137;48.578;9.180;2023-12-07T02:50:26;0.40;98.20
306;DHT22;137;48.578;9.180;2023-12-07T02:52:52;0.30;98.20
306;DHT22;137;48.578;9.180;2023-12-07T02:55:21;0.20;98.20
306;DHT22;137;48.578;9.180;2023-12-07T02:57:48;0.20;98.20
306;DHT22;137;48.578;9.180;2023-12-07T03:00:17;0.20;98.20
306;DHT22;137;48.578;9.180;2023-12-07T03:02:45;0.10;98.20
306;DHT22;137;48.578;9.180;2023-12-07T03:05:13;0.10;98.20
306;DHT22;137;48.578;9.180;2023-12-07T03:07:40;0.00;98.20
306;DHT22;137;48.578;9.180;2023-12-07T03:10:07;0.00;98.20
306;DHT22;137;48.578;9.180;2023-12-07T03:12:34;0.00;98.20
306;DHT22;137;48.578;9.180;2023-12-07T03:15:01;-0.10;98.20
306;DHT22;137;48.578;9.180;2023-12-07T03:17:28;-0.10;98.20
306;DHT22;137;48.578;9.180;2023-12-07T03:19:56;-0.20;98.20
306;DHT22;137;48.578;9.180;2023-12-07T03:22:23;-0.20;98.20
306;DHT22;137;48.578;9.180;2023-12-07T03:24:51;-0.30;98.20
306;DHT22;137;48.578;9.180;2023-12-07T03:27:18;-0.30;98.20
306;DHT22;137;48.578;9.180;2023-12-07T03:29:45;-0.40;98.20
306;DHT22;137;48.578;9.180;2023-12-07T03:32:11;-0.40;98.20
306;DHT22;137;48.578;9.180;2023-12-07T03:34:38;-0.50;98.20
306;DHT22;137;48.578;9.180;2023-12-07T03:37:06;-0.40;98.20
306;DHT22;137;48.578;9.180;2023-12-07T03:39:33;-0.50;98.20
306;DHT22;137;48.578;9.180;2023-12-07T03:42:00;-0.50;98.20
306;DHT22;137;48.578;9.180;2023-12-07T03:44:26;-0.50;98.20
306;DHT22;137;48.578;9.180;2023-12-07T03:46:53;-0.50;98.20
306;DHT22;137;48.578;9.180;2023-12-07T03:49:20;-0.50;98.20
306;DHT22;137;48.578;9.180;2023-12-07T03:51:47;-0.50;98.20
306;DHT22;137;48.578;9.180;2023-12-07T03:54:15;-0.50;98.20
306;DHT22;137;48.578;9.180;2023-12-07T03:56:42;-0.50;98.20
306;DHT22;137;48.578;9.180;2023-12-07T03:59:09;-0.50;98.20
306;DHT22;137;48.578;9.180;2023-12-07T04:01:36;-0.50;98.20
306;DHT22;137;48.578;9.180;2023-12-07T04:04:02;-0.50;98.20
306;DHT22;137;48.578;9.180;2023-12-07T04:06:30;-0.50;98.20
306;DHT22;137;48.578;9.180;2023-12-07T04:08:57;-0.50;98.20
306;DHT22;137;48.578;9.180;2023-12-07T04:11:25;-0.50;98.20
306;DHT22;137;48.578;9.180;2023-12-07T04:13:51;-0.30;98.20
306;DHT22;137;48.578;9.180;2023-12-07T04:16:18;-0.20;98.20
306;DHT22;137;48.578;9.180;2023-12-07T04:18:45;-0.30;98.20
306;DHT22;137;48.578;9.180;2023-12-07T04:21:12;-0.30;98.20
306;DHT22;137;48.578;9.180;2023-12-07T04:23:38;-0.40;98.20
306;DHT22;137;48.578;9.180;2023-12-07T04:26:05;-0.40;98.20
306;DHT22;137;48.578;9.180;2023-12-07T04:28:33;-0.40;98.20
306;DHT22;137;48.578;9.180;2023-12-07T04:31:00;-0.50;98.20
306;DHT22;137;48.578;9.180;2023-12-07T04:33:27;-0.40;98.20
306;DHT22;137;48.578;9.180;2023-12-07T04:35:54;-0.50;98.20
306;DHT22;137;48.578;9.180;2023-12-07T04:38:21;-0.50;98.20
306;DHT22;137;48.578;9.180;2023-12-07T04:40:48;-0.50;98.20
306;DHT22;137;48.578;9.180;2023-12-07T04:43:14;-0.50;98.20
306;DHT22;137;48.578;9.180;2023-12-07T04:45:43;-0.50;98.20
306;DHT22;137;48.578;9.180;2023-12-07T04:48:09;-0.60;98.20
306;DHT22;137;48.578;9.180;2023-12-07T04:50:36;-0.50;98.20
306;DHT22;137;48.578;9.180;2023-12-07T04:53:03;-0.60;98.20
306;DHT22;137;48.578;9.180;2023-12-07T04:55:29;-0.70;98.20
306;DHT22;137;48.578;9.180;2023-12-07T04:57:56;-0.70;98.20
306;DHT22;137;48.578;9.180;2023-12-07T05:00:23;-0.80;98.20
306;DHT22;137;48.578;9.180;2023-12-07T05:02:51;-0.90;98.20
306;DHT22;137;48.578;9.180;2023-12-07T05:05:18;-1.00;98.20
306;DHT22;137;48.578;9.180;2023-12-07T05:07:45;-1.00;98.20
306;DHT22;137;48.578;9.180;2023-12-07T05:10:11;-1.00;98.20
306;DHT22;137;48.578;9.180;2023-12-07T05:12:38;-1.10;98.20
306;DHT22;137;48.578;9.180;2023-12-07T05:15:06;-1.10;98.20
306;DHT22;137;48.578;9.180;2023-12-07T05:17:33;-1.10;98.20
306;DHT22;137;48.578;9.180;2023-12-07T05:20:02;-1.20;98.20
306;DHT22;137;48.578;9.180;2023-12-07T05:22:30;-1.30;98.20
306;DHT22;137;48.578;9.180;2023-12-07T05:24:56;-1.30;98.20
306;DHT22;137;48.578;9.180;2023-12-07T05:27:23;-1.40;98.20
306;DHT22;137;48.578;9.180;2023-12-07T05:29:50;-1.40;98.20
306;DHT22;137;48.578;9.180;2023-12-07T05:32:17;-1.50;98.20
306;DHT22;137;48.578;9.180;2023-12-07T05:34:43;-1.50;98.20
306;DHT22;137;48.578;9.180;2023-12-07T05:37:12;-1.50;98.20
306;DHT22;137;48.578;9.180;2023-12-07T05:39:39;-1.50;98.20
306;DHT22;137;48.578;9.180;2023-12-07T05:42:06;-1.50;98.20
306;DHT22;137;48.578;9.180;2023-12-07T05:44:33;-1.60;98.20
306;DHT22;137;48.578;9.180;2023-12-07T05:46:59;-1.50;98.20
306;DHT22;137;48.578;9.180;2023-12-07T05:49:27;-1.50;98.20
306;DHT22;137;48.578;9.180;2023-12-07T05:51:54;-1.50;98.20
306;DHT22;137;48.578;9.180;2023-12-07T05:54:22;-1.50;98.20
306;DHT22;137;48.578;9.180;2023-12-07T05:56:49;-1.60;98.20
306;DHT22;137;48.578;9.180;2023-12-07T05:59:16;-1.60;98.20
306;DHT22;137;48.578;9.180;2023-12-07T06:01:42;-1.70;98.20
306;DHT22;137;48.578;9.180;2023-12-07T06:04:09;-1.70;98.20
306;DHT22;137;48.578;9.180;2023-12-07T06:06:37;-1.70;98.20
306;DHT22;137;48.578;9.180;2023-12-07T06:09:04;-1.70;98.20
306;DHT22;137;48.578;9.180;2023-12-07T06:11:33;-1.70;98.20
306;DHT22;137;48.578;9.180;2023-12-07T06:14:00;-1.70;98.20
306;DHT22;137;48.578;9.180;2023-12-07T06:16:26;-1.80;98.20
306;DHT22;137;48.578;9.180;2023-12-07T06:18:53;-1.80;98.20
306;DHT22;137;48.578;9.180;2023-12-07T06:21:20;-1.80;98.20
306;DHT22;137;48.578;9.180;2023-12-07T06:23:46;-1.80;98.20
306;DHT22;137;48.578;9.180;2023-12-07T06:26:13;-1.90;98.20
306;DHT22;137;48.578;9.180;2023-12-07T06:28:42;-1.80;98.20
306;DHT22;137;48.578;9.180;2023-12-07T06:31:15;-1.80;98.20
306;DHT22;137;48.578;9.180;2023-12-07T06:33:45;-1.80;98.20
306;DHT22;137;48.578;9.180;2023-12-07T06:36:18;-1.90;98.20
306;DHT22;137;48.578;9.180;2023-12-07T06:38:45;-1.90;98.20
306;DHT22;137;48.578;9.180;2023-12-07T06:41:11;-1.90;98.20
306;DHT22;137;48.578;9.180;2023-12-07T06:43:38;-2.00;98.20
306;DHT22;137;48.578;9.180;2023-12-07T06:46:06;-2.00;98.20
306;DHT22;137;48.578;9.180;2023-12-07T06:48:33;-2.00;98.20
306;DHT22;137;48.578;9.180;2023-12-07T06:51:00;-2.00;98.20
306;DHT22;137;48.578;9.180;2023-12-07T06:53:28;-2.00;98.20
306;DHT22;137;48.578;9.180;2023-12-07T06:55:56;-2.00;98.20
306;DHT22;137;48.578;9.180;2023-12-07T06:58:22;-2.10;98.20
306;DHT22;137;48.578;9.180;2023-12-07T07:00:49;-2.10;98.20
306;DHT22;137;48.578;9.180;2023-12-07T07:03:17;-2.10;98.20
306;DHT22;137;48.578;9.180;2023-12-07T07:05:44;-2.10;98.20
306;DHT22;137;48.578;9.180;2023-12-07T07:08:11;-2.20;98.20
306;DHT22;137;48.578;9.180;2023-12-07T07:10:37;-2.20;98.20
306;DHT22;137;48.578;9.180;2023-12-07T07:13:04;-2.10;98.20
306;DHT22;137;48.578;9.180;2023-12-07T07:15:31;-2.10;98.20
306;DHT22;137;48.578;9.180;2023-12-07T07:17:58;-2.10;98.20
306;DHT22;137;48.578;9.180;2023-12-07T07:20:26;-2.10;98.20
306;DHT22;137;48.578;9.180;2023-12-07T07:22:53;-2.00;98.20
306;DHT22;137;48.578;9.180;2023-12-07T07:25:19;-2.00;98.20
306;DHT22;137;48.578;9.180;2023-12-07T07:27:47;-2.00;98.20
306;DHT22;137;48.578;9.180;2023-12-07T07:30:14;-2.00;98.20
306;DHT22;137;48.578;9.180;2023-12-07T07:32:41;-2.10;98.20
306;DHT22;137;48.578;9.180;2023-12-07T07:35:08;-2.00;98.20
306;DHT22;137;48.578;9.180;2023-12-07T07:37:38;-2.00;98.20
306;DHT22;137;48.578;9.180;2023-12-07T07:40:07;-2.00;98.20
306;DHT22;137;48.578;9.180;2023-12-07T07:42:45;-2.00;98.20
306;DHT22;137;48.578;9.180;2023-12-07T07:45:12;-1.90;98.20
306;DHT22;137;48.578;9.180;2023-12-07T07:47:38;-1.80;98.20
306;DHT22;137;48.578;9.180;2023-12-07T07:50:06;-1.80;98.20
306;DHT22;137;48.578;9.180;2023-12-07T07:52:33;-1.80;98.20
306;DHT22;137;48.578;9.180;2023-12-07T07:55:02;-1.80;98.20
306;DHT22;137;48.578;9.180;2023-12-07T07:57:30;-1.80;98.20
306;DHT22;137;48.578;9.180;2023-12-07T07:59:57;-1.80;98.20
306;DHT22;137;48.578;9.180;2023-12-07T08:02:23;-1.90;98.20
306;DHT22;137;48.578;9.180;2023-12-07T08:04:50;-1.80;98.20
306;DHT22;137;48.578;9.180;2023-12-07T08:07:17;-1.80;98.20
306;DHT22;137;48.578;9.180;2023-12-07T08:09:44;-1.70;98.20
306;DHT22;137;48.578;9.180;2023-12-07T08:12:12;-1.70;98.20
306;DHT22;137;48.578;9.180;2023-12-07T08:14:38;-1.70;98.20
306;DHT22;137;48.578;9.180;2023-12-07T08:17:05;-1.60;98.20
306;DHT22;137;48.578;9.180;2023-12-07T08:19:32;-1.60;98.20
306;DHT22;137;48.578;9.180;2023-12-07T08:21:58;-1.50;98.20
306;DHT22;137;48.578;9.180;2023-12-07T08:24:25;-1.50;98.20
306;DHT22;137;48.578;9.180;2023-12-07T08:26:52;-1.40;98.20
306;DHT22;137;48.578;9.180;2023-12-07T08:29:20;-1.30;98.20
306;DHT22;137;48.578;9.180;2023-12-07T08:31:47;-1.30;98.20
306;DHT22;137;48.578;9.180;2023-12-07T08:34:13;-1.30;98.20
306;DHT22;137;48.578;9.180;2023-12-07T08:36:40;-1.40;98.20
306;DHT22;137;48.578;9.180;2023-12-07T08:39:07;-1.40;98.20
306;DHT22;137;48.578;9.180;2023-12-07T08:41:35;-1.40;98.20
306;DHT22;137;48.578;9.180;2023-12-07T08:44:02;-1.30;98.20
306;DHT22;137;48.578;9.180;2023-12-07T08:46:31;-1.30;98.20
306;DHT22;137;48.578;9.180;2023-12-07T08:48:57;-1.10;98.20
306;DHT22;137;48.578;9.180;2023-12-07T08:51:24;-1.10;98.20
306;DHT22;137;48.578;9.180;2023-12-07T08:53:51;-0.90;98.20
306;DHT22;137;48.578;9.180;2023-12-07T08:56:18;-0.90;98.20
306;DHT22;137;48.578;9.180;2023-12-07T08:58:44;-0.70;98.20
306;DHT22;137;48.578;9.180;2023-12-07T09:01:11;-0.60;98.20
306;DHT22;137;48.578;9.180;2023-12-07T09:03:39;-0.50;98.20
306;DHT22;137;48.578;9.180;2023-12-07T09:06:07;-0.30;98.20
306;DHT22;137;48.578;9.180;2023-12-07T09:08:34;-0.20;98.20
306;DHT22;137;48.578;9.180;2023-12-07T09:11:01;-0.10;98.20
306;DHT22;137;48.578;9.180;2023-12-07T09:13:29;-0.10;98.20
306;DHT22;137;48.578;9.180;2023-12-07T09:15:56;-0.10;98.20
306;DHT22;137;48.578;9.180;2023-12-07T09:18:23;0.00;98.20
306;DHT22;137;48.578;9.180;2023-12-07T09:20:51;0.00;98.20
306;DHT22;137;48.578;9.180;2023-12-07T09:23:18;0.10;98.20
306;DHT22;137;48.578;9.180;2023-12-07T09:25:46;0.10;98.20
306;DHT22;137;48.578;9.180;2023-12-07T09:28:12;0.00;98.20
306;DHT22;137;48.578;9.180;2023-12-07T09:30:39;0.00;98.20
306;DHT22;137;48.578;9.180;2023-12-07T09:33:06;0.10;98.20
306;DHT22;137;48.578;9.180;2023-12-07T09:35:32;0.20;98.20
306;DHT22;137;48.578;9.180;2023-12-07T09:38:01;0.30;98.20
306;DHT22;137;48.578;9.180;2023-12-07T09:42:59;0.40;98.20
306;DHT22;137;48.578;9.180;2023-12-07T09:45:26;0.50;98.20
306;DHT22;137;48.578;9.180;2023-12-07T09:47:53;0.50;98.20
306;DHT22;137;48.578;9.180;2023-12-07T09:50:22;0.50;98.20
306;DHT22;137;48.578;9.180;2023-12-07T09:52:49;0.60;98.20
306;DHT22;137;48.578;9.180;2023-12-07T09:55:18;0.80;98.20
306;DHT22;137;48.578;9.180;2023-12-07T09:57:45;0.90;98.20
306;DHT22;137;48.578;9.180;2023-12-07T10:00:13;1.10;98.20
306;DHT22;137;48.578;9.180;2023-12-07T10:02:41;1.20;98.20
306;DHT22;137;48.578;9.180;2023-12-07T10:05:09;1.30;98.20
306;DHT22;137;48.578;9.180;2023-12-07T10:07:40;1.10;98.20
306;DHT22;137;48.578;9.180;2023-12-07T10:10:08;1.00;98.20
306;DHT22;137;48.578;9.180;2023-12-07T10:12:44;1.00;98.20
306;DHT22;137;48.578;9.180;2023-12-07T10:15:13;1.20;98.20
306;DHT22;137;48.578;9.180;2023-12-07T10:17:45;1.20;98.20
306;DHT22;137;48.578;9.180;2023-12-07T10:20:14;1.30;98.20
306;DHT22;137;48.578;9.180;2023-12-07T10:22:41;1.50;98.20
306;DHT22;137;48.578;9.180;2023-12-07T10:25:09;1.60;98.20
306;DHT22;137;48.578;9.180;2023-12-07T10:27:38;1.70;98.20
306;DHT22;137;48.578;9.180;2023-12-07T10:30:08;1.90;98.20
306;DHT22;137;48.578;9.180;2023-12-07T10:32:37;1.90;98.20
306;DHT22;137;48.578;9.180;2023-12-07T10:35:06;2.00;98.20
306;DHT22;137;48.578;9.180;2023-12-07T10:37:33;2.20;98.20
306;DHT22;137;48.578;9.180;2023-12-07T10:40:00;2.30;98.20
306;DHT22;137;48.578;9.180;2023-12-07T10:42:32;2.40;98.20
306;DHT22;137;48.578;9.180;2023-12-07T10:45:04;2.50;98.20
306;DHT22;137;48.578;9.180;2023-12-07T10:47:34;2.50;98.20
306;DHT22;137;48.578;9.180;2023-12-07T10:50:03;2.50;98.20
306;DHT22;137;48.578;9.180;2023-12-07T10:52:34;2.70;98.20
306;DHT22;137;48.578;9.180;2023-12-07T10:55:03;2.80;98.20
306;DHT22;137;48.578;9.180;2023-12-07T10:57:31;3.00;98.20
306;DHT22;137;48.578;9.180;2023-12-07T11:00:00;3.10;98.20
306;DHT22;137;48.578;9.180;2023-12-07T11:02:28;3.20;98.20
306;DHT22;137;48.578;9.180;2023-12-07T11:04:56;3.30;98.20
306;DHT22;137;48.578;9.180;2023-12-07T11:07:25;3.40;98.20
306;DHT22;137;48.578;9.180;2023-12-07T11:10:02;3.40;98.20
306;DHT22;137;48.578;9.180;2023-12-07T11:12:35;3.50;98.20
306;DHT22;137;48.578;9.180;2023-12-07T11:15:04;3.50;98.20
306;DHT22;137;48.578;9.180;2023-12-07T11:17:47;3.50;98.20
306;DHT22;137;48.578;9.180;2023-12-07T11:20:19;3.60;98.20
306;DHT22;137;48.578;9.180;2023-12-07T11:22:46;3.60;98.20
306;DHT22;137;48.578;9.180;2023-12-07T11:25:14;3.60;98.20
306;DHT22;137;48.578;9.180;2023-12-07T11:27:44;3.60;98.20
306;DHT22;137;48.578;9.180;2023-12-07T11:30:14;3.60;98.20
306;DHT22;137;48.578;9.180;2023-12-07T11:32:43;3.60;98.20
306;DHT22;137;48.578;9.180;2023-12-07T11:35:12;3.70;98.20
306;DHT22;137;48.578;9.180;2023-12-07T11:38:01;3.80;98.20
306;DHT22;137;48.578;9.180;2023-12-07T11:40:29;3.80;98.20
306;DHT22;137;48.578;9.180;2023-12-07T11:42:57;3.90;98.20
306;DHT22;137;48.578;9.180;2023-12-07T11:45:39;3.90;98.20
306;DHT22;137;48.578;9.180;2023-12-07T11:48:11;4.00;98.20
306;DHT22;137;48.578;9.180;2023-12-07T11:50:58;4.00;98.20
306;DHT22;137;48.578;9.180;2023-12-07T11:53:25;4.10;98.20
306;DHT22;137;48.578;9.180;2023-12-07T11:55:53;4.20;98.20
306;DHT22;137;48.578;9.180;2023-12-07T11:58:19;4.30;98.20
306;DHT22;137;48.578;9.180;2023-12-07T12:00:46;4.20;98.20
306;DHT22;137;48.578;9.180;2023-12-07T12:03:14;4.30;98.20
306;DHT22;137;48.578;9.180;2023-12-07T12:05:41;4.30;98.20
306;DHT22;137;48.578;9.180;2023-12-07T12:08:09;4.30;98.20
306;DHT22;137;48.578;9.180;2023-12-07T12:10:36;4.20;98.20
306;DHT22;137;48.578;9.180;2023-12-07T12:13:03;4.10;98.20
306;DHT22;137;48.578;9.180;2023-12-07T12:15:30;4.00;98.20
306;DHT22;137;48.578;9.180;2023-12-07T12:17:58;3.90;98.20
306;DHT22;137;48.578;9.180;2023-12-07T12:20:26;3.90;98.20
306;DHT22;137;48.578;9.180;2023-12-07T12:22:54;3.80;98.20
306;DHT22;137;48.578;9.180;2023-12-07T12:25:21;3.90;98.20
306;DHT22;137;48.578;9.180;2023-12-07T12:27:51;4.00;98.20
306;DHT22;137;48.578;9.180;2023-12-07T12:30:19;4.10;98.20
306;DHT22;137;48.578;9.180;2023-12-07T12:32:48;4.20;98.20
306;DHT22;137;48.578;9.180;2023-12-07T12:35:16;4.30;98.20
306;DHT22;137;48.578;9.180;2023-12-07T12:37:45;4.40;98.20
306;DHT22;137;48.578;9.180;2023-12-07T12:42:48;4.30;98.20
306;DHT22;137;48.578;9.180;2023-12-07T12:45:15;4.30;98.20
306;DHT22;137;48.578;9.180;2023-12-07T12:47:44;4.20;98.20
306;DHT22;137;48.578;9.180;2023-12-07T12:50:12;4.30;98.20
306;DHT22;137;48.578;9.180;2023-12-07T12:52:40;4.30;98.20
306;DHT22;137;48.578;9.180;2023-12-07T12:55:10;4.30;98.20
306;DHT22;137;48.578;9.180;2023-12-07T12:57:37;4.30;98.20
306;DHT22;137;48.578;9.180;2023-12-07T13:00:05;4.40;98.20
306;DHT22;137;48.578;9.180;2023-12-07T13:02:33;4.50;98.20
306;DHT22;137;48.578;9.180;2023-12-07T13:05:00;4.60;98.20
306;DHT22;137;48.578;9.180;2023-12-07T13:07:27;4.70;98.20
306;DHT22;137;48.578;9.180;2023-12-07T13:09:54;4.70;98.20
306;DHT22;137;48.578;9.180;2023-12-07T13:12:22;4.70;98.20
306;DHT22;137;48.578;9.180;2023-12-07T13:14:50;4.60;98.20
306;DHT22;137;48.578;9.180;2023-12-07T13:17:17;4.60;98.20
306;DHT22;137;48.578;9.180;2023-12-07T13:19:44;4.60;98.20
306;DHT22;137;48.578;9.180;2023-12-07T13:22:10;4.60;98.20
306;DHT22;137;48.578;9.180;2023-12-07T13:24:37;4.50;98.20
306;DHT22;137;48.578;9.180;2023-12-07T13:27:04;4.50;98.20
306;DHT22;137;48.578;9.180;2023-12-07T13:29:33;4.50;98.20
306;DHT22;137;48.578;9.180;2023-12-07T13:31:59;4.50;98.20
306;DHT22;137;48.578;9.180;2023-12-07T13:34:26;4.50;98.20
306;DHT22;137;48.578;9.180;2023-12-07T13:36:53;4.60;98.20
306;DHT22;137;48.578;9.180;2023-12-07T13:39:20;4.50;98.20
306;DHT22;137;48.578;9.180;2023-12-07T13:41:47;4.50;98.20
306;DHT22;137;48.578;9.180;2023-12-07T13:44:15;4.50;98.20
306;DHT22;137;48.578;9.180;2023-12-07T13:46:45;4.60;98.20
306;DHT22;137;48.578;9.180;2023-12-07T13:49:11;4.60;98.20
306;DHT22;137;48.578;9.180;2023-12-07T13:51:39;4.60;98.20
306;DHT22;137;48.578;9.180;2023-12-07T13:54:06;4.60;98.20
306;DHT22;137;48.578;9.180;2023-12-07T13:56:33;4.50;98.20
306;DHT22;137;48.578;9.180;2023-12-07T13:59:00;4.50;98.20
306;DHT22;137;48.578;9.180;2023-12-07T14:01:27;4.40;98.20
306;DHT22;137;48.578;9.180;2023-12-07T14:03:57;4.50;98.20
306;DHT22;137;48.578;9.180;2023-12-07T14:06:24;4.50;98.20
306;DHT22;137;48.578;9.180;2023-12-07T14:08:51;4.60;98.20
306;DHT22;137;48.578;9.180;2023-12-07T14:11:18;4.60;98.20
306;DHT22;137;48.578;9.180;2023-12-07T14:13:45;4.50;98.20
306;DHT22;137;48.578;9.180;2023-12-07T14:16:13;4.50;98.20
306;DHT22;137;48.578;9.180;2023-12-07T14:18:40;4.40;98.20
306;DHT22;137;48.578;9.180;2023-12-07T14:21:09;4.30;98.20
306;DHT22;137;48.578;9.180;2023-12-07T14:23:36;4.10;98.20
306;DHT22;137;48.578;9.180;2023-12-07T14:26:03;4.00;98.20
306;DHT22;137;48.578;9.180;2023-12-07T14:28:30;3.90;98.20
306;DHT22;137;48.578;9.180;2023-12-07T14:30:59;3.70;98.20
306;DHT22;137;48.578;9.180;2023-12-07T14:33:26;3.60;98.20
306;DHT22;137;48.578;9.180;2023-12-07T14:35:53;3.50;98.20
306;DHT22;137;48.578;9.180;2023-12-07T14:38:21;3.40;98.20
306;DHT22;137;48.578;9.180;2023-12-07T14:40:49;3.30;98.20
306;DHT22;137;48.578;9.180;2023-12-07T14:43:16;3.20;98.20
306;DHT22;137;48.578;9.180;2023-12-07T14:45:43;3.20;98.20
306;DHT22;137;48.578;9.180;2023-12-07T14:48:10;3.20;98.20
306;DHT22;137;48.578;9.180;2023-12-07T14:50:37;3.10;98.20
306;DHT22;137;48.578;9.180;2023-12-07T14:53:04;3.10;98.20
306;DHT22;137;48.578;9.180;2023-12-07T14:55:32;3.00;98.20
306;DHT22;137;48.578;9.180;2023-12-07T14:57:59;2.90;98.20
306;DHT22;137;48.578;9.180;2023-12-07T15:00:26;2.80;98.20
306;DHT22;137;48.578;9.180;2023-12-07T15:02:54;2.70;98.20
306;DHT22;137;48.578;9.180;2023-12-07T15:05:21;2.60;98.20
306;DHT22;137;48.578;9.180;2023-12-07T15:07:48;2.60;98.20
306;DHT22;137;48.578;9.180;2023-12-07T15:10:16;2.50;98.20
306;DHT22;137;48.578;9.180;2023-12-07T15:12:45;2.40;98.20
306;DHT22;137;48.578;9.180;2023-12-07T15:15:12;2.40;98.20
306;DHT22;137;48.578;9.180;2023-12-07T15:17:38;2.40;98.20
306;DHT22;137;48.578;9.180;2023-12-07T15:20:07;2.30;98.20
306;DHT22;137;48.578;9.180;2023-12-07T15:22:35;2.30;98.20
306;DHT22;137;48.578;9.180;2023-12-07T15:25:02;2.20;98.20
306;DHT22;137;48.578;9.180;2023-12-07T15:27:30;2.10;98.20
306;DHT22;137;48.578;9.180;2023-12-07T15:29:58;2.00;98.20
306;DHT22;137;48.578;9.180;2023-12-07T15:32:25;1.90;98.20
306;DHT22;137;48.578;9.180;2023-12-07T15:34:52;1.90;98.20
306;DHT22;137;48.578;9.180;2023-12-07T15:37:19;1.80;98.20
306;DHT22;137;48.578;9.180;2023-12-07T15:39:45;1.80;98.20
306;DHT22;137;48.578;9.180;2023-12-07T15:42:15;1.80;98.20
306;DHT22;137;48.578;9.180;2023-12-07T15:44:44;1.70;98.20
306;DHT22;137;48.578;9.180;2023-12-07T15:47:12;1.70;98.20
306;DHT22;137;48.578;9.180;2023-12-07T15:49:39;1.60;98.20
306;DHT22;137;48.578;9.180;2023-12-07T15:52:08;1.50;98.20
306;DHT22;137;48.578;9.180;2023-12-07T15:54:35;1.50;98.20
306;DHT22;137;48.578;9.180;2023-12-07T15:57:02;1.40;98.20
306;DHT22;137;48.578;9.180;2023-12-07T15:59:28;1.40;98.20
306;DHT22;137;48.578;9.180;2023-12-07T16:01:55;1.40;98.20
306;DHT22;137;48.578;9.180;2023-12-07T16:04:23;1.30;98.20
306;DHT22;137;48.578;9.180;2023-12-07T16:06:50;1.30;98.20
306;DHT22;137;48.578;9.180;2023-12-07T16:09:16;1.20;98.20
306;DHT22;137;48.578;9.180;2023-12-07T16:11:43;1.10;98.20
306;DHT22;137;48.578;9.180;2023-12-07T16:14:10;1.00;98.20
306;DHT22;137;48.578;9.180;2023-12-07T16:16:36;0.90;98.20
306;DHT22;137;48.578;9.180;2023-12-07T16:19:03;0.90;98.20
306;DHT22;137;48.578;9.180;2023-12-07T16:21:31;0.80;98.20
306;DHT22;137;48.578;9.180;2023-12-07T16:23:58;0.80;98.20
306;DHT22;137;48.578;9.180;2023-12-07T16:26:25;0.80;98.20
306;DHT22;137;48.578;9.180;2023-12-07T16:28:52;0.70;98.20
306;DHT22;137;48.578;9.180;2023-12-07T16:31:19;0.70;98.20
306;DHT22;137;48.578;9.180;2023-12-07T16:33:45;0.70;98.20
306;DHT22;137;48.578;9.180;2023-12-07T16:36:15;0.80;98.20
306;DHT22;137;48.578;9.180;2023-12-07T16:38:57;0.80;98.20
306;DHT22;137;48.578;9.180;2023-12-07T16:41:30;0.80;98.20
306;DHT22;137;48.578;9.180;2023-12-07T16:43:58;0.70;98.20
306;DHT22;137;48.578;9.180;2023-12-07T16:46:25;0.70;98.20
306;DHT22;137;48.578;9.180;2023-12-07T16:48:53;0.70;98.20
306;DHT22;137;48.578;9.180;2023-12-07T16:51:20;0.60;98.20
306;DHT22;137;48.578;9.180;2023-12-07T16:53:47;0.60;98.20